sensor_id;sensor_type;location;lat;lon;timestamp;pressure;altitude;pressure_sealevel;temperature;humidity
57859;BME280;49153;45.568;11.894;2023-02-12T00:01:13;103060.03;;;1.35;70.70
57859;BME280;49153;45.568;11.894;2023-02-12T00:03:39;103038.28;;;1.17;70.82
57859;BME280;49153;45.568;11.894;2023-02-12T00:06:06;103030.47;;;1.10;70.90
57859;BME280;49153;45.568;11.894;2023-02-12T00:08:32;103033.09;;;1.14;70.95
57859;BME280;49153;45.568;11.894;2023-02-12T00:10:57;103044.44;;;1.35;71.17
57859;BME280;49153;45.568;11.894;2023-02-12T00:13:24;103027.97;;;1.26;71.12
57859;BME280;49153;45.568;11.894;2023-02-12T00:15:50;103049.66;;;1.44;71.54
57859;BME280;49153;45.568;11.894;2023-02-12T00:18:15;103021.91;;;1.31;71.05
57859;BME280;49153;45.568;11.894;2023-02-12T00:20:40;103019.28;;;1.27;70.81
57859;BME280;49153;45.568;11.894;2023-02-12T00:23:06;103044.47;;;1.41;71.28
57859;BME280;49153;45.568;11.894;2023-02-12T00:25:32;103047.03;;;1.35;70.99
57859;BME280;49153;45.568;11.894;2023-02-12T00:27:58;103020.97;;;1.22;70.73
57859;BME280;49153;45.568;11.894;2023-02-12T00:30:23;103010.59;;;1.19;71.24
57859;BME280;49153;45.568;11.894;2023-02-12T00:32:50;103007.13;;;1.19;71.26
57859;BME280;49153;45.568;11.894;2023-02-12T00:35:15;103028.84;;;1.32;71.21
57859;BME280;49153;45.568;11.894;2023-02-12T00:37:41;103033.16;;;1.33;71.11
57859;BME280;49153;45.568;11.894;2023-02-12T00:40:07;102999.22;;;0.95;71.49
57859;BME280;49153;45.568;11.894;2023-02-12T00:42:32;103004.41;;;0.95;71.69
57859;BME280;49153;45.568;11.894;2023-02-12T00:44:58;103031.28;;;1.01;71.69
57859;BME280;49153;45.568;11.894;2023-02-12T00:47:23;103018.25;;;0.92;72.06
57859;BME280;49153;45.568;11.894;2023-02-12T00:49:48;103032.13;;;0.96;71.52
57859;BME280;49153;45.568;11.894;2023-02-12T00:52:14;103014.69;;;0.76;71.62
57859;BME280;49153;45.568;11.894;2023-02-12T00:54:39;102998.22;;;0.74;72.30
57859;BME280;49153;45.568;11.894;2023-02-12T00:57:08;103009.47;;;0.75;72.11
57859;BME280;49153;45.568;11.894;2023-02-12T00:59:35;103001.66;;;0.69;72.46
57859;BME280;49153;45.568;11.894;2023-02-12T01:02:02;102996.44;;;0.66;72.36
57859;BME280;49153;45.568;11.894;2023-02-12T01:04:29;102990.44;;;0.71;72.65
57859;BME280;49153;45.568;11.894;2023-02-12T01:06:54;102969.59;;;0.64;72.88
57859;BME280;49153;45.568;11.894;2023-02-12T01:09:20;103028.59;;;0.86;72.62
57859;BME280;49153;45.568;11.894;2023-02-12T01:11:45;103003.38;;;0.65;72.73
57859;BME280;49153;45.568;11.894;2023-02-12T01:14:10;102980.81;;;0.57;72.95
57859;BME280;49153;45.568;11.894;2023-02-12T01:16:36;103023.44;;;0.88;73.06
57859;BME280;49153;45.568;11.894;2023-02-12T01:19:03;103005.19;;;0.80;73.04
57859;BME280;49153;45.568;11.894;2023-02-12T01:21:31;102997.38;;;0.75;73.06
57859;BME280;49153;45.568;11.894;2023-02-12T01:23:57;103007.81;;;0.83;73.23
57859;BME280;49153;45.568;11.894;2023-02-12T01:26:26;102976.53;;;0.63;73.03
57859;BME280;49153;45.568;11.894;2023-02-12T01:28:55;102955.72;;;0.56;73.04
57859;BME280;49153;45.568;11.894;2023-02-12T01:31:23;103004.38;;;0.84;73.39
57859;BME280;49153;45.568;11.894;2023-02-12T01:33:51;103006.06;;;0.82;72.97
57859;BME280;49153;45.568;11.894;2023-02-12T01:36:17;102966.13;;;0.62;73.08
57859;BME280;49153;45.568;11.894;2023-02-12T01:38:43;102988.66;;;0.69;73.39
57859;BME280;49153;45.568;11.894;2023-02-12T01:41:13;102973.03;;;0.60;73.32
57859;BME280;49153;45.568;11.894;2023-02-12T01:43:38;103006.03;;;0.76;73.38
57859;BME280;49153;45.568;11.894;2023-02-12T01:46:05;102995.66;;;0.80;73.58
57859;BME280;49153;45.568;11.894;2023-02-12T01:48:37;102986.09;;;0.75;73.08
57859;BME280;49153;45.568;11.894;2023-02-12T01:51:03;102973.00;;;0.51;72.87
57859;BME280;49153;45.568;11.894;2023-02-12T01:53:37;102994.72;;;0.63;73.38
57859;BME280;49153;45.568;11.894;2023-02-12T01:56:05;103004.19;;;0.58;73.21
57859;BME280;49153;45.568;11.894;2023-02-12T01:58:38;102990.19;;;0.35;73.06
57859;BME280;49153;45.568;11.894;2023-02-12T02:01:09;102996.25;;;0.38;73.59
57859;BME280;49153;45.568;11.894;2023-02-12T02:03:36;102989.34;;;0.39;73.51
57859;BME280;49153;45.568;11.894;2023-02-12T02:06:10;102978.06;;;0.34;73.68
57859;BME280;49153;45.568;11.894;2023-02-12T02:08:37;102983.31;;;0.37;73.92
57859;BME280;49153;45.568;11.894;2023-02-12T02:11:03;102976.25;;;0.24;73.51
57859;BME280;49153;45.568;11.894;2023-02-12T02:13:49;102968.38;;;0.09;73.58
57859;BME280;49153;45.568;11.894;2023-02-12T02:16:34;102945.81;;;0.00;73.91
57859;BME280;49153;45.568;11.894;2023-02-12T02:19:29;102950.22;;;0.12;74.25
57859;BME280;49153;45.568;11.894;2023-02-12T02:30:54;102979.84;;;0.42;74.25
57859;BME280;49153;45.568;11.894;2023-02-12T02:33:43;102977.22;;;0.35;74.03
57859;BME280;49153;45.568;11.894;2023-02-12T02:39:38;102952.84;;;0.16;74.42
57859;BME280;49153;45.568;11.894;2023-02-12T02:44:18;102947.50;;;-0.04;74.34
57859;BME280;49153;45.568;11.894;2023-02-12T02:46:47;102957.88;;;-0.07;74.18
57859;BME280;49153;45.568;11.894;2023-02-12T02:49:32;102957.84;;;-0.08;74.46
57859;BME280;49153;45.568;11.894;2023-02-12T02:52:03;102950.84;;;-0.21;75.03
57859;BME280;49153;45.568;11.894;2023-02-12T02:54:36;102976.91;;;-0.06;75.13
57859;BME280;49153;45.568;11.894;2023-02-12T02:59:43;102951.66;;;-0.24;76.81
57859;BME280;49153;45.568;11.894;2023-02-12T03:02:15;102947.16;;;-0.42;75.76
57859;BME280;49153;45.568;11.894;2023-02-12T03:04:51;102984.44;;;-0.30;75.63
57859;BME280;49153;45.568;11.894;2023-02-12T03:07:40;102967.06;;;-0.40;75.83
57859;BME280;49153;45.568;11.894;2023-02-12T03:10:19;102953.16;;;-0.47;76.00
57859;BME280;49153;45.568;11.894;2023-02-12T03:15:42;102941.09;;;-0.42;76.56
57859;BME280;49153;45.568;11.894;2023-02-12T03:18:18;102942.78;;;-0.49;76.38
57859;BME280;49153;45.568;11.894;2023-02-12T03:21:06;102968.03;;;-0.32;76.85
57859;BME280;49153;45.568;11.894;2023-02-12T03:23:43;102922.81;;;-0.60;76.49
57859;BME280;49153;45.568;11.894;2023-02-12T03:26:15;102941.06;;;-0.48;76.83
57859;BME280;49153;45.568;11.894;2023-02-12T03:28:45;102976.59;;;-0.36;76.56
57859;BME280;49153;45.568;11.894;2023-02-12T03:34:05;102949.59;;;-0.57;76.77
57859;BME280;49153;45.568;11.894;2023-02-12T03:39:16;102938.41;;;-0.56;76.64
57859;BME280;49153;45.568;11.894;2023-02-12T03:41:49;102958.38;;;-0.46;76.60
57859;BME280;49153;45.568;11.894;2023-02-12T03:47:21;102963.66;;;-0.35;77.03
57859;BME280;49153;45.568;11.894;2023-02-12T03:52:53;102947.97;;;-0.47;76.77
57859;BME280;49153;45.568;11.894;2023-02-12T03:55:18;102948.88;;;-0.42;76.37
57859;BME280;49153;45.568;11.894;2023-02-12T03:57:48;102947.28;;;-0.32;77.04
57859;BME280;49153;45.568;11.894;2023-02-12T04:00:19;102948.22;;;-0.23;77.01
57859;BME280;49153;45.568;11.894;2023-02-12T04:02:46;102940.34;;;-0.33;76.82
57859;BME280;49153;45.568;11.894;2023-02-12T04:05:25;102969.00;;;-0.18;76.51
57859;BME280;49153;45.568;11.894;2023-02-12T04:07:52;102950.66;;;-0.36;76.34
57859;BME280;49153;45.568;11.894;2023-02-12T04:10:24;102949.81;;;-0.35;76.27
57859;BME280;49153;45.568;11.894;2023-02-12T04:12:58;102950.66;;;-0.39;76.26
57859;BME280;49153;45.568;11.894;2023-02-12T04:18:20;102958.50;;;-0.30;76.60
57859;BME280;49153;45.568;11.894;2023-02-12T04:29:13;102953.94;;;-0.56;77.02
57859;BME280;49153;45.568;11.894;2023-02-12T04:37:03;102934.97;;;-0.55;77.19
57859;BME280;49153;45.568;11.894;2023-02-12T04:39:33;102913.28;;;-0.61;76.92
57859;BME280;49153;45.568;11.894;2023-02-12T04:42:02;102940.28;;;-0.39;77.34
57859;BME280;49153;45.568;11.894;2023-02-12T04:44:35;102916.78;;;-0.56;76.83
57859;BME280;49153;45.568;11.894;2023-02-12T04:47:01;102924.53;;;-0.61;76.69
57859;BME280;49153;45.568;11.894;2023-02-12T04:49:27;102922.78;;;-0.62;76.94
57859;BME280;49153;45.568;11.894;2023-02-12T04:51:53;102919.38;;;-0.59;77.10
57859;BME280;49153;45.568;11.894;2023-02-12T04:54:20;102942.81;;;-0.46;77.46
57859;BME280;49153;45.568;11.894;2023-02-12T04:56:46;102936.78;;;-0.45;77.49
57859;BME280;49153;45.568;11.894;2023-02-12T04:59:12;102922.78;;;-0.62;76.91
57859;BME280;49153;45.568;11.894;2023-02-12T05:01:40;102926.19;;;-0.66;77.22
57859;BME280;49153;45.568;11.894;2023-02-12T05:04:07;102918.31;;;-0.76;77.24
57859;BME280;49153;45.568;11.894;2023-02-12T05:06:37;102918.28;;;-0.78;76.97
57859;BME280;49153;45.568;11.894;2023-02-12T05:09:04;102928.69;;;-0.75;77.36
57859;BME280;49153;45.568;11.894;2023-02-12T05:11:30;102929.59;;;-0.71;77.28
57859;BME280;49153;45.568;11.894;2023-02-12T05:13:55;102920.88;;;-0.79;77.34
57859;BME280;49153;45.568;11.894;2023-02-12T05:16:21;102938.16;;;-0.77;77.03
57859;BME280;49153;45.568;11.894;2023-02-12T05:18:47;102946.75;;;-0.82;76.92
57859;BME280;49153;45.568;11.894;2023-02-12T05:21:13;102950.09;;;-0.91;77.56
57859;BME280;49153;45.568;11.894;2023-02-12T05:23:39;102981.34;;;-0.77;77.52
57859;BME280;49153;45.568;11.894;2023-02-12T05:26:07;102974.22;;;-0.95;77.57
57859;BME280;49153;45.568;11.894;2023-02-12T05:28:33;102989.88;;;-0.86;77.98
57859;BME280;49153;45.568;11.894;2023-02-12T05:31:04;102993.44;;;-0.79;78.08
57859;BME280;49153;45.568;11.894;2023-02-12T05:33:29;102955.16;;;-1.02;78.48
57859;BME280;49153;45.568;11.894;2023-02-12T05:35:55;102994.13;;;-0.91;78.86
57859;BME280;49153;45.568;11.894;2023-02-12T05:38:21;102984.56;;;-0.95;79.05
57859;BME280;49153;45.568;11.894;2023-02-12T05:40:46;102978.31;;;-1.11;79.20
57859;BME280;49153;45.568;11.894;2023-02-12T05:43:12;102986.22;;;-1.03;78.95
57859;BME280;49153;45.568;11.894;2023-02-12T05:45:38;102976.75;;;-1.01;79.00
57859;BME280;49153;45.568;11.894;2023-02-12T05:48:06;102976.75;;;-1.01;79.14
57859;BME280;49153;45.568;11.894;2023-02-12T05:50:31;103012.34;;;-0.85;79.17
57859;BME280;49153;45.568;11.894;2023-02-12T05:53:01;103016.66;;;-0.86;78.85
57859;BME280;49153;45.568;11.894;2023-02-12T05:55:27;102990.56;;;-1.01;79.02
57859;BME280;49153;45.568;11.894;2023-02-12T05:57:52;102996.66;;;-0.97;79.39
57859;BME280;49153;45.568;11.894;2023-02-12T06:00:18;102994.94;;;-0.97;79.47
57859;BME280;49153;45.568;11.894;2023-02-12T06:02:44;103011.41;;;-0.92;79.17
57859;BME280;49153;45.568;11.894;2023-02-12T06:05:09;102982.78;;;-1.02;78.72
57859;BME280;49153;45.568;11.894;2023-02-12T06:07:34;103008.88;;;-0.84;79.27
57859;BME280;49153;45.568;11.894;2023-02-12T06:10:00;102975.09;;;-0.96;79.02
57859;BME280;49153;45.568;11.894;2023-02-12T06:12:25;102971.63;;;-0.97;78.96
57859;BME280;49153;45.568;11.894;2023-02-12T06:14:51;103001.19;;;-0.78;78.45
57859;BME280;49153;45.568;11.894;2023-02-12T06:17:16;103001.19;;;-0.78;78.18
57859;BME280;49153;45.568;11.894;2023-02-12T06:19:42;102985.56;;;-0.86;78.57
57859;BME280;49153;45.568;11.894;2023-02-12T06:22:07;102970.72;;;-0.99;78.63
57859;BME280;49153;45.568;11.894;2023-02-12T06:24:32;102997.66;;;-0.85;78.32
57859;BME280;49153;45.568;11.894;2023-02-12T06:26:58;102995.06;;;-0.86;78.71
57859;BME280;49153;45.568;11.894;2023-02-12T06:29:29;102954.25;;;-1.04;78.30
57859;BME280;49153;45.568;11.894;2023-02-12T06:31:55;102947.31;;;-1.08;78.32
57859;BME280;49153;45.568;11.894;2023-02-12T06:34:20;102961.22;;;-1.01;78.57
57859;BME280;49153;45.568;11.894;2023-02-12T06:36:46;102964.66;;;-1.02;78.65
57859;BME280;49153;45.568;11.894;2023-02-12T06:39:14;102980.09;;;-1.08;78.37
57859;BME280;49153;45.568;11.894;2023-02-12T06:41:40;103022.56;;;-0.94;78.93
57859;BME280;49153;45.568;11.894;2023-02-12T06:44:07;103016.44;;;-1.02;79.07
57859;BME280;49153;45.568;11.894;2023-02-12T06:46:32;103045.16;;;-0.84;79.38
57859;BME280;49153;45.568;11.894;2023-02-12T06:48:59;103045.16;;;-0.84;79.03
57859;BME280;49153;45.568;11.894;2023-02-12T06:51:25;103067.03;;;-0.64;79.09
57859;BME280;49153;45.568;11.894;2023-02-12T06:53:53;103080.03;;;-0.59;78.87
57859;BME280;49153;45.568;11.894;2023-02-12T06:56:20;103090.50;;;-0.52;79.27
57859;BME280;49153;45.568;11.894;2023-02-12T06:58:50;103075.88;;;-0.48;79.40
57859;BME280;49153;45.568;11.894;2023-02-12T07:01:19;103067.97;;;-0.56;79.05
57859;BME280;49153;45.568;11.894;2023-02-12T07:03:50;103062.78;;;-0.59;78.73
57859;BME280;49153;45.568;11.894;2023-02-12T07:06:16;103062.81;;;-0.56;79.17
57859;BME280;49153;45.568;11.894;2023-02-12T07:08:42;103080.19;;;-0.46;79.31
57859;BME280;49153;45.568;11.894;2023-02-12T07:11:08;103080.28;;;-0.39;79.32
57859;BME280;49153;45.568;11.894;2023-02-12T07:13:34;103058.56;;;-0.49;79.26
57859;BME280;49153;45.568;11.894;2023-02-12T07:16:07;103038.56;;;-0.58;78.90
57859;BME280;49153;45.568;11.894;2023-02-12T07:18:34;103051.69;;;-0.46;78.98
57859;BME280;49153;45.568;11.894;2023-02-12T07:20:59;103047.47;;;-0.37;79.25
57859;BME280;49153;45.568;11.894;2023-02-12T07:23:25;103043.16;;;-0.35;79.14
57859;BME280;49153;45.568;11.894;2023-02-12T07:25:58;103058.78;;;-0.29;79.89
57859;BME280;49153;45.568;11.894;2023-02-12T07:28:24;103049.25;;;-0.33;79.77
57859;BME280;49153;45.568;11.894;2023-02-12T07:30:50;103053.63;;;-0.25;80.19
57859;BME280;49153;45.568;11.894;2023-02-12T07:33:16;103058.06;;;-0.16;80.17
57859;BME280;49153;45.568;11.894;2023-02-12T07:35:41;103059.09;;;-0.01;80.54
57859;BME280;49153;45.568;11.894;2023-02-12T07:38:06;103044.41;;;0.03;80.64
57859;BME280;49153;45.568;11.894;2023-02-12T07:40:32;103062.81;;;0.26;80.86
57859;BME280;49153;45.568;11.894;2023-02-12T07:42:57;103088.16;;;0.59;80.73
57859;BME280;49153;45.568;11.894;2023-02-12T07:45:23;103058.69;;;0.54;80.53
57859;BME280;49153;45.568;11.894;2023-02-12T07:47:49;103085.75;;;0.83;80.12
57859;BME280;49153;45.568;11.894;2023-02-12T07:50:14;103093.66;;;1.00;79.84
57859;BME280;49153;45.568;11.894;2023-02-12T07:52:40;103076.38;;;1.12;80.23
57859;BME280;49153;45.568;11.894;2023-02-12T07:55:06;103059.03;;;1.08;80.69
57859;BME280;49153;45.568;11.894;2023-02-12T07:57:31;103048.69;;;1.17;80.25
57859;BME280;49153;45.568;11.894;2023-02-12T07:59:58;103061.78;;;1.39;80.38
57859;BME280;49153;45.568;11.894;2023-02-12T08:02:24;103072.25;;;1.51;80.29
57859;BME280;49153;45.568;11.894;2023-02-12T08:04:57;103093.16;;;1.74;80.03
57859;BME280;49153;45.568;11.894;2023-02-12T08:07:23;103081.88;;;1.85;80.29
57859;BME280;49153;45.568;11.894;2023-02-12T08:09:52;103051.53;;;1.83;79.68
57859;BME280;49153;45.568;11.894;2023-02-12T08:12:18;103053.31;;;2.00;80.34
57859;BME280;49153;45.568;11.894;2023-02-12T08:14:43;103065.47;;;2.17;80.41
57859;BME280;49153;45.568;11.894;2023-02-12T08:17:09;103095.88;;;2.46;79.89
57859;BME280;49153;45.568;11.894;2023-02-12T08:19:35;103077.63;;;2.55;79.94
57859;BME280;49153;45.568;11.894;2023-02-12T08:22:00;103071.56;;;2.64;79.91
57859;BME280;49153;45.568;11.894;2023-02-12T08:24:36;103099.28;;;2.91;79.88
57859;BME280;49153;45.568;11.894;2023-02-12T08:27:12;103108.00;;;2.99;79.29
57859;BME280;49153;45.568;11.894;2023-02-12T08:29:42;103078.44;;;2.92;78.64
57859;BME280;49153;45.568;11.894;2023-02-12T08:32:27;103114.88;;;3.26;78.34
57859;BME280;49153;45.568;11.894;2023-02-12T08:34:58;103116.56;;;3.39;77.98
57859;BME280;49153;45.568;11.894;2023-02-12T08:37:25;103073.13;;;3.35;78.12
57859;BME280;49153;45.568;11.894;2023-02-12T08:40:10;103102.53;;;3.70;78.37
57859;BME280;49153;45.568;11.894;2023-02-12T08:42:47;103101.59;;;3.82;77.71
57859;BME280;49153;45.568;11.894;2023-02-12T08:45:31;103085.91;;;3.88;77.65
57859;BME280;49153;45.568;11.894;2023-02-12T08:48:00;103065.88;;;3.92;77.32
57859;BME280;49153;45.568;11.894;2023-02-12T08:50:26;103089.19;;;4.20;76.68
57859;BME280;49153;45.568;11.894;2023-02-12T08:53:01;103096.03;;;4.37;76.40
57859;BME280;49153;45.568;11.894;2023-02-12T08:55:51;103077.69;;;4.44;76.23
57859;BME280;49153;45.568;11.894;2023-02-12T08:58:21;103106.09;;;4.82;76.12
57859;BME280;49153;45.568;11.894;2023-02-12T09:01:02;103097.28;;;4.94;75.13
57859;BME280;49153;45.568;11.894;2023-02-12T09:03:50;103089.31;;;5.07;74.66
57859;BME280;49153;45.568;11.894;2023-02-12T09:06:36;103108.16;;;5.35;74.99
57859;BME280;49153;45.568;11.894;2023-02-12T09:09:24;103108.78;;;5.56;74.06
57859;BME280;49153;45.568;11.894;2023-02-12T09:11:57;103086.94;;;5.60;73.03
57859;BME280;49153;45.568;11.894;2023-02-12T09:14:26;103107.53;;;5.88;71.90
57859;BME280;49153;45.568;11.894;2023-02-12T09:16:59;103099.50;;;6.02;71.69
57859;BME280;49153;45.568;11.894;2023-02-12T09:19:29;103101.97;;;6.11;70.86
57859;BME280;49153;45.568;11.894;2023-02-12T09:22:03;103098.41;;;6.18;71.24
57859;BME280;49153;45.568;11.894;2023-02-12T09:24:54;103109.47;;;6.35;69.72
57859;BME280;49153;45.568;11.894;2023-02-12T09:27:41;103115.38;;;6.50;69.55
57859;BME280;49153;45.568;11.894;2023-02-12T09:30:40;103089.19;;;6.47;67.27
57859;BME280;49153;45.568;11.894;2023-02-12T09:33:56;103127.09;;;6.81;67.95
57859;BME280;49153;45.568;11.894;2023-02-12T09:40:07;103089.41;;;6.87;67.61
57859;BME280;49153;45.568;11.894;2023-02-12T09:43:17;103137.53;;;7.32;67.11
57859;BME280;49153;45.568;11.894;2023-02-12T09:51:15;103141.91;;;7.76;65.17
57859;BME280;49153;45.568;11.894;2023-02-12T09:53:42;103139.09;;;7.83;64.53
57859;BME280;49153;45.568;11.894;2023-02-12T09:56:15;103140.59;;;7.95;63.26
57859;BME280;49153;45.568;11.894;2023-02-12T09:58:55;103146.53;;;8.04;63.12
57859;BME280;49153;45.568;11.894;2023-02-12T10:01:23;103150.53;;;8.21;62.38
57859;BME280;49153;45.568;11.894;2023-02-12T10:03:50;103162.56;;;8.34;62.96
57859;BME280;49153;45.568;11.894;2023-02-12T10:06:29;103173.47;;;8.54;62.24
57859;BME280;49153;45.568;11.894;2023-02-12T10:12:06;103178.00;;;8.84;59.62
57859;BME280;49153;45.568;11.894;2023-02-12T10:17:43;103180.03;;;9.09;57.43
57859;BME280;49153;45.568;11.894;2023-02-12T10:25:21;103197.66;;;9.39;55.45
57859;BME280;49153;45.568;11.894;2023-02-12T10:27:51;103194.69;;;9.51;53.76
57859;BME280;49153;45.568;11.894;2023-02-12T10:33:13;103191.41;;;9.74;54.27
57859;BME280;49153;45.568;11.894;2023-02-12T10:35:46;103178.88;;;9.82;53.65
57859;BME280;49153;45.568;11.894;2023-02-12T10:38:20;103182.84;;;9.97;52.30
57859;BME280;49153;45.568;11.894;2023-02-12T10:40:48;103180.88;;;10.03;51.30
57859;BME280;49153;45.568;11.894;2023-02-12T10:43:15;103187.66;;;10.12;52.41
57859;BME280;49153;45.568;11.894;2023-02-12T10:45:41;103196.88;;;10.28;51.20
57859;BME280;49153;45.568;11.894;2023-02-12T10:48:32;103204.41;;;10.40;51.24
57859;BME280;49153;45.568;11.894;2023-02-12T10:53:34;103198.03;;;10.74;49.98
57859;BME280;49153;45.568;11.894;2023-02-12T10:56:20;103193.47;;;10.79;47.99
57859;BME280;49153;45.568;11.894;2023-02-12T11:01:21;103181.63;;;10.92;48.28
57859;BME280;49153;45.568;11.894;2023-02-12T11:03:50;103176.22;;;10.95;47.43
57859;BME280;49153;45.568;11.894;2023-02-12T11:06:24;103168.09;;;11.01;45.44
57859;BME280;49153;45.568;11.894;2023-02-12T11:08:51;103177.53;;;11.08;45.19
57859;BME280;49153;45.568;11.894;2023-02-12T11:11:21;103172.25;;;11.08;43.76
57859;BME280;49153;45.568;11.894;2023-02-12T11:16:33;103174.31;;;11.25;45.98
57859;BME280;49153;45.568;11.894;2023-02-12T11:19:09;103170.09;;;11.44;46.01
57859;BME280;49153;45.568;11.894;2023-02-12T11:21:44;103167.81;;;11.58;46.06
57859;BME280;49153;45.568;11.894;2023-02-12T11:24:34;103168.28;;;11.69;44.64
57859;BME280;49153;45.568;11.894;2023-02-12T11:29:44;103173.50;;;11.96;44.93
57859;BME280;49153;45.568;11.894;2023-02-12T11:32:19;103177.25;;;12.13;46.50
57859;BME280;49153;45.568;11.894;2023-02-12T11:35:15;103163.53;;;12.25;45.76
57859;BME280;49153;45.568;11.894;2023-02-12T11:37:44;103167.53;;;12.36;43.06
57859;BME280;49153;45.568;11.894;2023-02-12T11:40:44;103174.19;;;12.46;43.01
57859;BME280;49153;45.568;11.894;2023-02-12T11:43:16;103177.28;;;12.57;42.91
57859;BME280;49153;45.568;11.894;2023-02-12T11:45:45;103184.03;;;12.64;43.29
57859;BME280;49153;45.568;11.894;2023-02-12T11:48:20;103179.97;;;12.77;42.68
57859;BME280;49153;45.568;11.894;2023-02-12T11:50:48;103184.53;;;12.95;42.74
57859;BME280;49153;45.568;11.894;2023-02-12T11:53:24;103188.63;;;13.02;41.13
57859;BME280;49153;45.568;11.894;2023-02-12T11:55:53;103187.03;;;12.98;40.33
57859;BME280;49153;45.568;11.894;2023-02-12T11:58:22;103184.53;;;12.95;41.02
57859;BME280;49153;45.568;11.894;2023-02-12T12:01:24;103187.63;;;13.05;42.27
57859;BME280;49153;45.568;11.894;2023-02-12T12:06:45;103179.25;;;13.36;42.13
57859;BME280;49153;45.568;11.894;2023-02-12T12:10:24;103186.19;;;13.38;40.16
57859;BME280;49153;45.568;11.894;2023-02-12T12:12:20;103188.28;;;13.32;39.71
57859;BME280;49153;45.568;11.894;2023-02-12T12:14:52;103187.00;;;13.40;38.41
57859;BME280;49153;45.568;11.894;2023-02-12T12:17:57;103182.56;;;13.41;39.63
57859;BME280;49153;45.568;11.894;2023-02-12T12:20:46;103184.41;;;13.39;36.81
57859;BME280;49153;45.568;11.894;2023-02-12T12:23:20;103191.03;;;13.29;36.85
57859;BME280;49153;45.568;11.894;2023-02-12T12:25:52;103179.78;;;13.24;37.61
57859;BME280;49153;45.568;11.894;2023-02-12T12:56:04;103164.91;;;14.35;39.18
57859;BME280;49153;45.568;11.894;2023-02-12T13:15:47;103197.75;;;15.06;37.04
57859;BME280;49153;45.568;11.894;2023-02-12T13:17:52;103195.84;;;15.08;37.31
57859;BME280;49153;45.568;11.894;2023-02-12T13:28:34;103207.72;;;14.84;37.10
57859;BME280;49153;45.568;11.894;2023-02-12T13:31:05;103205.41;;;14.95;37.77
57859;BME280;49153;45.568;11.894;2023-02-12T13:36:05;103204.25;;;15.00;35.58
57859;BME280;49153;45.568;11.894;2023-02-12T13:38:43;103200.03;;;14.96;37.25
57859;BME280;49153;45.568;11.894;2023-02-12T13:41:10;103203.69;;;14.94;37.37
57859;BME280;49153;45.568;11.894;2023-02-12T13:43:58;103198.81;;;14.85;38.13
57859;BME280;49153;45.568;11.894;2023-02-12T13:46:42;103205.13;;;14.82;38.85
57859;BME280;49153;45.568;11.894;2023-02-12T13:51:47;103205.72;;;15.06;38.83
57859;BME280;49153;45.568;11.894;2023-02-12T14:01:54;103213.94;;;15.01;39.45
57859;BME280;49153;45.568;11.894;2023-02-12T14:07:01;103220.09;;;15.02;39.41
57859;BME280;49153;45.568;11.894;2023-02-12T14:09:36;103216.66;;;15.00;39.24
57859;BME280;49153;45.568;11.894;2023-02-12T14:14:43;103214.13;;;14.97;39.88
57859;BME280;49153;45.568;11.894;2023-02-12T14:24:53;103214.03;;;14.81;40.39
57859;BME280;49153;45.568;11.894;2023-02-12T14:38:00;103231.84;;;14.43;41.24
57859;BME280;49153;45.568;11.894;2023-02-12T14:42:57;103229.91;;;14.47;41.63
57859;BME280;49153;45.568;11.894;2023-02-12T14:45:32;103243.44;;;14.59;41.87
57859;BME280;49153;45.568;11.894;2023-02-12T14:47:58;103233.16;;;14.53;41.42
57859;BME280;49153;45.568;11.894;2023-02-12T14:50:35;103233.16;;;14.33;41.39
57859;BME280;49153;45.568;11.894;2023-02-12T14:53:15;103241.22;;;14.31;41.73
57859;BME280;49153;45.568;11.894;2023-02-12T14:55:46;103243.84;;;14.13;42.98
57859;BME280;49153;45.568;11.894;2023-02-12T14:58:17;103244.56;;;13.98;42.88
57859;BME280;49153;45.568;11.894;2023-02-12T15:00:45;103243.13;;;13.90;42.63
57859;BME280;49153;45.568;11.894;2023-02-12T15:05:42;103242.75;;;13.59;42.93
57859;BME280;49153;45.568;11.894;2023-02-12T15:08:30;103243.41;;;13.64;44.17
57859;BME280;49153;45.568;11.894;2023-02-12T15:13:32;103250.22;;;13.49;44.56
57859;BME280;49153;45.568;11.894;2023-02-12T15:16:08;103251.72;;;13.57;45.32
57859;BME280;49153;45.568;11.894;2023-02-12T15:23:42;103253.16;;;13.43;45.31
57859;BME280;49153;45.568;11.894;2023-02-12T15:26:14;103250.94;;;13.33;45.52
57859;BME280;49153;45.568;11.894;2023-02-12T15:28:41;103246.47;;;13.35;46.07
57859;BME280;49153;45.568;11.894;2023-02-12T15:31:07;103251.50;;;13.41;45.83
57859;BME280;49153;45.568;11.894;2023-02-12T15:33:38;103248.19;;;13.36;45.74
57859;BME280;49153;45.568;11.894;2023-02-12T15:36:06;103239.31;;;13.37;46.16
57859;BME280;49153;45.568;11.894;2023-02-12T15:38:36;103257.72;;;13.60;46.40
57859;BME280;49153;45.568;11.894;2023-02-12T15:41:02;103255.47;;;13.71;46.60
57859;BME280;49153;45.568;11.894;2023-02-12T15:43:31;103261.22;;;13.81;46.55
57859;BME280;49153;45.568;11.894;2023-02-12T15:46:00;103255.59;;;13.88;46.27
57859;BME280;49153;45.568;11.894;2023-02-12T15:48:31;103251.81;;;13.94;46.32
57859;BME280;49153;45.568;11.894;2023-02-12T15:51:14;103250.06;;;13.93;46.25
57859;BME280;49153;45.568;11.894;2023-02-12T15:53:41;103249.38;;;13.89;46.02
57859;BME280;49153;45.568;11.894;2023-02-12T15:56:12;103257.13;;;13.94;46.17
57859;BME280;49153;45.568;11.894;2023-02-12T15:58:59;103263.28;;;13.94;46.04
57859;BME280;49153;45.568;11.894;2023-02-12T16:01:31;103261.81;;;13.87;46.28
57859;BME280;49153;45.568;11.894;2023-02-12T16:03:59;103263.81;;;13.82;46.04
57859;BME280;49153;45.568;11.894;2023-02-12T16:06:26;103256.00;;;13.79;46.19
57859;BME280;49153;45.568;11.894;2023-02-12T16:09:02;103259.72;;;13.75;46.12